Time;durP1;ratioP1;P1;durP2;ratioP2;P2;SDS_P1;SDS_P2;PMS_P1;PMS_P2;Temp;Humidity;BMP_temperature;BMP_pressure;BME280_temperature;BME280_humidity;BME280_pressure;Samples;Min_cycle;Max_cycle;Signal;HPM_P1;HPM_P2
2022/03/10 00:00:02;;;;;;;52.42;34.03;;;;;;;0.45;100.00;100044.16;2082538;28;20180;-73
2022/03/10 00:01:17;;;;;;;51.63;33.85;;;;;;;0.37;100.00;100045.16;2082514;28;20237;-74
2022/03/10 00:02:18;;;;;;;50.33;34.08;;;;;;;0.34;100.00;100042.94;2082268;28;20204;-73
2022/03/10 00:03:20;;;;;;;55.20;35.40;;;;;;;0.30;100.00;100047.00;2082110;28;20274;-74
2022/03/10 00:04:22;;;;;;;51.50;33.15;;;;;;;0.27;100.00;100050.03;2081852;28;20250;-73
2022/03/10 00:05:24;;;;;;;52.85;34.05;;;;;;;0.26;100.00;100056.28;2081781;28;20191;-73
2022/03/10 00:06:29;;;;;;;55.63;33.58;;;;;;;0.26;100.00;100058.91;2081138;28;20277;-73
2022/03/10 00:07:35;;;;;;;47.40;32.53;;;;;;;0.27;100.00;100048.22;2081743;28;20777;-73
2022/03/10 00:08:40;;;;;;;51.80;33.55;;;;;;;0.26;100.00;100056.28;2081989;28;20242;-73
2022/03/10 00:09:42;;;;;;;51.88;33.95;;;;;;;0.25;100.00;100054.66;2082130;28;20673;-73
2022/03/10 00:10:43;;;;;;;54.95;34.58;;;;;;;0.24;100.00;100058.31;2073747;28;20215;-73
2022/03/10 00:11:48;;;;;;;53.70;35.45;;;;;;;0.21;100.00;100058.72;2081837;28;20218;-73
2022/03/10 00:12:53;;;;;;;55.67;34.00;;;;;;;0.23;100.00;100059.31;2081726;28;20302;-73
2022/03/10 00:13:57;;;;;;;52.63;33.75;;;;;;;0.34;100.00;100060.50;2074233;28;20203;-73
2022/03/10 00:14:58;;;;;;;51.00;32.95;;;;;;;0.28;100.00;100065.56;2073477;28;20200;-73
2022/03/10 00:16:01;;;;;;;56.72;35.22;;;;;;;0.23;100.00;100062.75;2081857;28;20198;-73
2022/03/10 00:17:02;;;;;;;49.00;32.65;;;;;;;0.27;100.00;100071.03;2082135;28;20228;-73
2022/03/10 00:18:08;;;;;;;56.03;33.97;;;;;;;0.26;100.00;100064.16;2082371;28;20658;-73
2022/03/10 00:19:12;;;;;;;54.80;34.88;;;;;;;0.22;100.00;100063.75;2082517;28;20704;-73
2022/03/10 00:20:17;;;;;;;51.88;33.80;;;;;;;0.21;100.00;100070.03;2082507;28;20195;-73
2022/03/10 00:21:19;;;;;;;56.10;33.33;;;;;;;0.17;100.00;100060.13;2081383;28;20243;-74
2022/03/10 00:22:24;;;;;;;51.95;33.17;;;;;;;0.17;100.00;100066.16;2081924;28;20283;-73
2022/03/10 00:23:26;;;;;;;49.90;33.70;;;;;;;0.24;100.00;100059.09;2082359;28;20657;-73
2022/03/10 00:24:32;;;;;;;47.15;31.83;;;;;;;0.26;100.00;100067.59;2081461;28;20567;-73
2022/03/10 00:25:34;;;;;;;51.30;33.67;;;;;;;0.23;100.00;100075.88;2082083;28;20168;-73
2022/03/10 00:26:37;;;;;;;54.20;33.83;;;;;;;0.31;100.00;100074.84;2082393;28;20215;-73
2022/03/10 00:27:42;;;;;;;54.65;32.83;;;;;;;0.26;100.00;100066.78;2082549;28;20303;-73
2022/03/10 00:28:46;;;;;;;52.38;33.20;;;;;;;0.24;100.00;100080.09;2081794;28;20219;-73
2022/03/10 00:29:50;;;;;;;52.42;33.17;;;;;;;0.17;100.00;100074.03;2081760;28;20196;-73
2022/03/10 00:30:55;;;;;;;55.08;36.08;;;;;;;0.14;100.00;100071.03;2082455;28;20223;-73
2022/03/10 00:31:56;;;;;;;53.50;34.55;;;;;;;0.10;100.00;100072.47;2081858;28;20219;-73
2022/03/10 00:33:01;;;;;;;50.92;33.70;;;;;;;0.10;100.00;100078.50;2082334;28;20713;-73
2022/03/10 00:34:07;;;;;;;53.00;34.03;;;;;;;0.10;100.00;100081.13;2081622;28;20608;-73
2022/03/10 00:35:12;;;;;;;49.78;32.83;;;;;;;0.07;100.00;100073.66;2081573;28;20219;-73
2022/03/10 00:36:15;;;;;;;55.90;33.92;;;;;;;0.10;100.00;100080.34;2081386;28;20288;-73
2022/03/10 00:37:19;;;;;;;51.17;33.80;;;;;;;0.04;100.00;100078.50;2089800;28;20218;-73
2022/03/10 00:38:21;;;;;;;52.50;33.42;;;;;;;0.07;100.00;100078.09;2089781;28;20202;-74
2022/03/10 00:39:25;;;;;;;48.35;32.63;;;;;;;0.08;100.00;100085.75;2082067;28;20207;-73
2022/03/10 00:40:29;;;;;;;46.42;31.25;;;;;;;0.08;100.00;100084.94;2074248;28;20204;-73
2022/03/10 00:41:31;;;;;;;52.55;32.53;;;;;;;0.03;100.00;100076.91;2081777;28;20222;-73
2022/03/10 00:42:37;;;;;;;45.25;30.90;;;;;;;0.11;100.00;100079.31;2081964;28;20223;-73
2022/03/10 00:43:45;;;;;;;45.35;29.98;;;;;;;0.09;100.00;100082.16;2074409;28;20200;-73
2022/03/10 00:44:49;;;;;;;46.10;30.77;;;;;;;0.12;100.00;100089.59;2081592;28;20192;-73
2022/03/10 00:45:52;;;;;;;41.42;29.33;;;;;;;0.15;100.00;100083.94;2082409;28;20188;-73
2022/03/10 00:46:54;;;;;;;41.88;29.77;;;;;;;0.11;100.00;100087.19;2081733;28;20204;-73
2022/03/10 00:47:57;;;;;;;38.90;28.87;;;;;;;0.06;100.00;100093.03;2081809;28;20184;-73
2022/03/10 00:48:58;;;;;;;37.60;28.88;;;;;;;0.07;100.00;100086.78;2082221;28;20856;-73
2022/03/10 00:50:01;;;;;;;41.13;28.52;;;;;;;0.02;100.00;100097.06;2089665;28;20206;-73
2022/03/10 00:51:05;;;;;;;38.13;28.40;;;;;;;-0.04;100.00;100090.00;2089233;28;20179;-73
2022/03/10 00:52:10;;;;;;;43.33;27.80;;;;;;;-0.06;100.00;100092.84;2082274;28;20653;-74
2022/03/10 00:53:15;;;;;;;37.05;27.92;;;;;;;-0.01;100.00;100087.78;2089699;28;20294;-73
2022/03/10 00:54:21;;;;;;;40.67;29.45;;;;;;;0.01;100.00;100090.22;2089815;28;20187;-73
2022/03/10 00:55:23;;;;;;;39.05;28.70;;;;;;;-0.02;100.00;100086.16;2081553;28;20191;-73
2022/03/10 00:56:26;;;;;;;36.67;27.67;;;;;;;0.12;100.00;100091.44;2073434;28;20200;-73
2022/03/10 00:57:36;;;;;;;38.95;29.40;;;;;;;0.05;100.00;100091.41;2081722;28;20242;-74
2022/03/10 00:58:39;;;;;;;36.40;27.55;;;;;;;0.01;100.00;100094.66;2081803;28;20207;-73
2022/03/10 00:59:45;;;;;;;36.40;27.10;;;;;;;0.01;100.00;100090.22;2081695;28;20642;-73
2022/03/10 01:00:51;;;;;;;37.67;27.63;;;;;;;0.10;100.00;100089.00;2082195;28;20180;-73
2022/03/10 01:01:56;;;;;;;34.22;26.65;;;;;;;0.11;100.00;100088.00;2082073;28;20218;-73
2022/03/10 01:02:58;;;;;;;35.35;26.10;;;;;;;0.15;100.00;100085.75;2082136;28;20198;-74
2022/03/10 01:04:01;;;;;;;36.05;25.98;;;;;;;0.08;100.00;100096.25;2082141;28;20194;-73
2022/03/10 01:05:05;;;;;;;33.45;26.38;;;;;;;0.01;100.00;100095.47;2081730;28;20685;-73
2022/03/10 01:06:12;;;;;;;33.55;25.73;;;;;;;-0.01;100.00;100092.22;2081166;28;20183;-73
2022/03/10 01:07:17;;;;;;;35.17;27.38;;;;;;;-0.05;100.00;100096.25;2082214;28;20176;-73
2022/03/10 01:08:22;;;;;;;35.28;26.58;;;;;;;0.01;100.00;100095.47;2082245;28;20192;-73
2022/03/10 01:09:27;;;;;;;32.97;26.02;;;;;;;0.06;100.00;100097.47;2082345;28;20176;-73
2022/03/10 01:10:31;;;;;;;30.95;26.08;;;;;;;-0.02;100.00;100096.66;2089480;28;20548;-73
2022/03/10 01:11:33;;;;;;;35.28;26.65;;;;;;;-0.04;100.00;100092.63;2089574;28;20677;-73
2022/03/10 01:12:41;;;;;;;32.70;25.38;;;;;;;-0.15;100.00;100096.66;2082042;28;20187;-73
2022/03/10 01:13:46;;;;;;;32.72;25.80;;;;;;;-0.07;100.00;100087.78;2081784;28;20207;-73
2022/03/10 01:14:53;;;;;;;32.08;26.05;;;;;;;-0.01;100.00;100094.84;2074254;28;20211;-73
2022/03/10 01:15:58;;;;;;;31.95;26.95;;;;;;;0.01;100.00;100094.66;2081801;28;20179;-74
2022/03/10 01:17:00;;;;;;;28.88;24.90;;;;;;;-0.08;100.00;100094.84;2081307;28;20582;-75
2022/03/10 01:18:05;;;;;;;31.55;25.40;;;;;;;-0.11;100.00;100092.63;2081771;28;20668;-74
2022/03/10 01:19:08;;;;;;;31.58;24.80;;;;;;;-0.17;100.00;100090.00;2084067;28;20696;-74
2022/03/10 01:20:13;;;;;;;30.50;25.17;;;;;;;-0.16;100.00;100087.19;2084148;28;20183;-74
2022/03/10 01:21:16;;;;;;;32.72;25.73;;;;;;;-0.06;100.00;100098.06;2083514;28;20287;-74
2022/03/10 01:22:22;;;;;;;32.10;25.63;;;;;;;-0.15;100.00;100094.03;2083991;28;20282;-73
2022/03/10 01:23:26;;;;;;;33.72;25.27;;;;;;;-0.14;100.00;100095.66;2083403;28;20208;-74
2022/03/10 01:24:32;;;;;;;31.95;25.48;;;;;;;-0.13;100.00;100094.63;2083222;28;20188;-73
2022/03/10 01:25:33;;;;;;;29.73;25.85;;;;;;;-0.08;100.00;100094.84;2083793;28;20638;-73
2022/03/10 01:26:38;;;;;;;35.67;25.65;;;;;;;-0.08;100.00;100100.09;2091346;28;20577;-74
2022/03/10 01:27:42;;;;;;;33.25;25.48;;;;;;;-0.11;100.00;100092.63;2082939;28;20608;-73
2022/03/10 01:28:47;;;;;;;30.98;25.75;;;;;;;-0.20;100.00;100104.31;2083213;28;20202;-73
2022/03/10 01:29:52;;;;;;;31.75;26.10;;;;;;;-0.30;100.00;100099.47;2083647;28;20202;-73
2022/03/10 01:30:58;;;;;;;31.83;25.17;;;;;;;-0.36;100.00;100102.06;2091220;28;20730;-73
2022/03/10 01:32:01;;;;;;;31.63;25.95;;;;;;;-0.37;100.00;100098.63;2090947;28;20266;-73
2022/03/10 01:33:03;;;;;;;33.75;25.58;;;;;;;-0.30;100.00;100098.66;2083684;28;20191;-73
2022/03/10 01:34:04;;;;;;;31.52;25.70;;;;;;;-0.35;100.00;100096.63;2083024;28;20673;-73
2022/03/10 01:35:08;;;;;;;29.25;24.58;;;;;;;-0.32;100.00;100101.47;2083103;28;20627;-74
2022/03/10 01:36:10;;;;;;;27.88;23.88;;;;;;;-0.26;100.00;100086.78;2083136;28;20227;-73
2022/03/10 01:37:15;;;;;;;26.42;23.33;;;;;;;-0.12;100.00;100105.94;2083191;28;20199;-73
2022/03/10 01:38:18;;;;;;;27.60;23.25;;;;;;;-0.21;100.00;100102.69;2083103;28;20187;-73
2022/03/10 01:39:22;;;;;;;27.80;24.45;;;;;;;-0.33;100.00;100099.88;2083152;28;20203;-73
2022/03/10 01:40:25;;;;;;;25.75;23.10;;;;;;;-0.35;100.00;100107.13;2075427;28;20335;-73
2022/03/10 01:41:29;;;;;;;26.80;23.90;;;;;;;-0.38;100.00;100101.47;2083180;28;20215;-73
2022/03/10 01:42:34;;;;;;;26.55;23.08;;;;;;;-0.40;100.00;100103.47;2091177;28;20229;-74
2022/03/10 01:43:57;;;;;;;28.23;23.35;;;;;;;-0.28;100.00;100101.88;2082845;28;20257;-73
2022/03/10 01:45:02;;;;;;;26.23;23.42;;;;;;;-0.30;100.00;100098.66;2083210;28;20687;-73
2022/03/10 01:46:06;;;;;;;26.45;22.67;;;;;;;-0.33;100.00;100099.06;2083861;28;20183;-73
2022/03/10 01:47:13;;;;;;;26.08;23.30;;;;;;;-0.33;100.00;100101.69;2083768;28;20180;-73
2022/03/10 01:48:16;;;;;;;26.95;22.13;;;;;;;-0.35;100.00;100104.50;2083283;28;20265;-73
2022/03/10 01:49:21;;;;;;;25.08;22.27;;;;;;;-0.42;100.00;100098.44;2083101;28;20210;-73
2022/03/10 01:50:26;;;;;;;25.45;22.48;;;;;;;-0.40;100.00;100103.47;2083539;28;20200;-73
2022/03/10 01:51:29;;;;;;;26.27;22.77;;;;;;;-0.38;100.00;100101.47;2082576;28;20682;-73
2022/03/10 01:52:32;;;;;;;25.65;22.83;;;;;;;-0.38;100.00;100110.13;2082545;28;20257;-73
2022/03/10 01:53:34;;;;;;;26.15;22.92;;;;;;;-0.42;100.00;100114.16;2083145;28;20240;-73
2022/03/10 01:54:37;;;;;;;25.85;22.92;;;;;;;-0.42;100.00;100113.34;2075107;28;20201;-74
2022/03/10 01:55:38;;;;;;;26.13;23.20;;;;;;;-0.47;100.00;100105.28;2082971;28;20207;-73
2022/03/10 01:56:40;;;;;;;26.20;22.42;;;;;;;-0.42;100.00;100114.16;2074712;28;20196;-73
2022/03/10 01:57:43;;;;;;;27.20;23.05;;;;;;;-0.48;100.00;100112.31;2082947;28;20215;-73
2022/03/10 01:58:48;;;;;;;26.85;23.15;;;;;;;-0.46;100.00;100117.38;2083750;28;20183;-74
2022/03/10 01:59:51;;;;;;;25.20;22.35;;;;;;;-0.49;100.00;100115.16;2082305;28;20227;-73
2022/03/10 02:00:57;;;;;;;27.42;22.58;;;;;;;-0.50;100.00;100111.72;2082723;28;20222;-73
2022/03/10 02:01:59;;;;;;;25.95;22.63;;;;;;;-0.49;100.00;100110.72;2083225;28;20180;-74
2022/03/10 02:03:04;;;;;;;29.52;23.38;;;;;;;-0.48;100.00;100116.75;2090883;28;20212;-73
2022/03/10 02:04:06;;;;;;;30.95;24.27;;;;;;;-0.50;100.00;100110.91;2082853;28;20204;-73
2022/03/10 02:05:10;;;;;;;31.70;23.37;;;;;;;-0.49;100.00;100115.16;2082844;28;20666;-74
2022/03/10 02:06:15;;;;;;;26.52;23.67;;;;;;;-0.52;100.00;100111.13;2082735;28;20542;-72
2022/03/10 02:11:17;;;;;;;25.60;22.10;;;;;;;-0.38;100.00;100114.56;2083660;28;20176;-73
2022/03/10 02:12:21;;;;;;;25.95;22.73;;;;;;;-0.43;100.00;100115.19;2082726;28;20202;-73
2022/03/10 02:13:26;;;;;;;25.83;22.65;;;;;;;-0.39;100.00;100115.56;2083177;28;20196;-74
2022/03/10 02:17:22;;;;;;;24.73;21.88;;;;;;;-0.42;100.00;100122.03;2053351;28;20213;-73
2022/03/10 02:18:23;;;;;;;27.80;22.40;;;;;;;-0.53;100.00;100124.41;2058405;28;20215;-73
2022/03/10 02:19:26;;;;;;;26.48;22.95;;;;;;;-0.58;100.00;100123.19;2081128;28;20211;-73
2022/03/10 02:20:30;;;;;;;24.75;22.02;;;;;;;-0.60;100.00;100125.22;2082941;28;20264;-73
2022/03/10 02:21:36;;;;;;;25.25;22.55;;;;;;;-0.59;100.00;100124.19;2081556;28;20759;-73
2022/03/10 02:22:44;;;;;;;26.20;21.98;;;;;;;-0.51;100.00;100128.47;2083280;28;20191;-73
2022/03/10 02:23:46;;;;;;;27.90;22.45;;;;;;;-0.44;100.00;100128.47;2082885;28;20253;-73
2022/03/10 02:24:51;;;;;;;25.73;21.70;;;;;;;-0.49;100.00;100130.88;2083023;28;20282;-73
2022/03/10 02:25:53;;;;;;;25.98;22.75;;;;;;;-0.47;100.00;100139.34;2083105;28;20180;-73
2022/03/10 02:26:58;;;;;;;25.25;22.55;;;;;;;-0.38;100.00;100138.16;2083202;28;20226;-73
2022/03/10 02:28:00;;;;;;;27.42;23.35;;;;;;;-0.47;100.00;100134.09;2082873;28;20588;-73
2022/03/10 02:29:04;;;;;;;29.05;23.42;;;;;;;-0.52;100.00;100141.75;2082047;28;20761;-73
2022/03/10 02:30:11;;;;;;;26.08;23.35;;;;;;;-0.53;100.00;100146.16;2083550;28;20168;-73
2022/03/10 02:31:15;;;;;;;28.67;24.17;;;;;;;-0.61;100.00;100134.06;2082498;28;20693;-73
2022/03/10 02:32:23;;;;;;;27.35;22.67;;;;;;;-0.58;100.00;100138.91;2082733;28;20212;-74
2022/03/10 02:33:24;;;;;;;27.75;24.20;;;;;;;-0.48;100.00;100143.78;2082705;28;20308;-73
2022/03/10 02:34:28;;;;;;;26.70;23.83;;;;;;;-0.46;100.00;100146.19;2082777;28;20187;-73
2022/03/10 02:35:31;;;;;;;27.05;23.83;;;;;;;-0.50;100.00;100147.63;2083248;28;20434;-73
2022/03/10 02:36:35;;;;;;;26.20;22.63;;;;;;;-0.56;100.00;100151.81;2082120;28;20242;-73
2022/03/10 02:37:38;;;;;;;26.88;24.08;;;;;;;-0.63;100.00;100151.78;2082493;28;20201;-73
2022/03/10 02:38:44;;;;;;;29.17;24.05;;;;;;;-0.59;100.00;100154.84;2074548;28;20208;-73
2022/03/10 02:39:48;;;;;;;27.60;23.80;;;;;;;-0.61;100.00;100149.81;2082876;28;20218;-73
2022/03/10 02:40:52;;;;;;;26.15;23.35;;;;;;;-0.58;100.00;100152.03;2090727;28;20191;-73
2022/03/10 02:41:56;;;;;;;27.02;23.15;;;;;;;-0.69;100.00;100147.34;2090446;28;20246;-73
2022/03/10 02:42:59;;;;;;;26.73;22.67;;;;;;;-0.78;100.00;100153.75;2090783;28;20199;-74
2022/03/10 02:44:00;;;;;;;26.48;23.52;;;;;;;-0.75;100.00;100157.78;2082387;28;20295;-73
2022/03/10 02:45:04;;;;;;;24.17;21.83;;;;;;;-0.75;100.00;100163.84;2082299;28;20226;-73
2022/03/10 02:46:07;;;;;;;25.85;21.98;;;;;;;-0.67;100.00;100153.19;2090583;28;20653;-73
2022/03/10 02:47:09;;;;;;;25.42;22.27;;;;;;;-0.60;100.00;100166.34;2083152;28;20720;-73
2022/03/10 02:48:11;;;;;;;25.33;22.70;;;;;;;-0.61;100.00;100165.53;2083089;28;20290;-73
2022/03/10 02:49:14;;;;;;;24.52;21.83;;;;;;;-0.69;100.00;100175.38;2083140;28;20219;-73
2022/03/10 02:50:18;;;;;;;23.45;21.00;;;;;;;-0.68;100.00;100159.44;2082996;28;20227;-73
2022/03/10 02:51:21;;;;;;;25.58;21.08;;;;;;;-0.68;100.00;100161.25;2082244;28;20223;-73
2022/03/10 02:52:24;;;;;;;22.88;20.45;;;;;;;-0.76;100.00;100177.94;2082588;28;20195;-73
2022/03/10 02:53:26;;;;;;;23.48;20.75;;;;;;;-0.80;100.00;100165.41;2082458;28;20204;-73
2022/03/10 02:54:30;;;;;;;22.70;20.50;;;;;;;-0.79;100.00;100162.59;2082470;28;20211;-73
2022/03/10 02:55:33;;;;;;;23.33;21.00;;;;;;;-0.87;100.00;100173.22;2083371;28;20200;-73
2022/03/10 02:56:37;;;;;;;21.70;19.60;;;;;;;-0.85;100.00;100173.88;2083007;28;20187;-73
2022/03/10 02:57:40;;;;;;;23.05;20.35;;;;;;;-0.89;100.00;100172.63;2082279;28;20204;-73
2022/03/10 02:58:45;;;;;;;22.63;20.42;;;;;;;-0.87;100.00;100175.84;2082402;28;20278;-73
2022/03/10 02:59:46;;;;;;;21.40;19.25;;;;;;;-0.80;100.00;100175.91;2082966;28;20199;-73
2022/03/10 03:00:50;;;;;;;22.33;20.00;;;;;;;-0.87;100.00;100170.63;2082422;28;20191;-73
2022/03/10 03:01:55;;;;;;;21.85;19.83;;;;;;;-0.86;100.00;100170.44;2082445;28;20241;-73
2022/03/10 03:02:59;;;;;;;22.27;20.02;;;;;;;-0.80;100.00;100184.56;2082671;28;20303;-73
2022/03/10 03:04:00;;;;;;;22.27;20.08;;;;;;;-0.81;100.00;100187.38;2082522;28;20564;-73
2022/03/10 03:05:06;;;;;;;22.67;20.30;;;;;;;-0.92;100.00;100186.13;2083054;28;20197;-73
2022/03/10 03:06:09;;;;;;;22.08;19.85;;;;;;;-1.03;100.00;100197.16;2082482;28;20727;-73
2022/03/10 03:07:14;;;;;;;22.83;20.58;;;;;;;-1.04;100.00;100198.13;2083002;28;20196;-74
2022/03/10 03:08:16;;;;;;;23.30;20.90;;;;;;;-1.11;100.00;100198.09;2082949;28;20607;-73
2022/03/10 03:09:22;;;;;;;23.10;20.70;;;;;;;-1.17;100.00;100196.25;2082969;28;20650;-73
2022/03/10 03:10:28;;;;;;;23.90;21.50;;;;;;;-1.18;100.00;100203.28;2082189;28;20694;-73
2022/03/10 03:11:30;;;;;;;23.05;20.83;;;;;;;-1.16;100.00;100198.66;2074774;28;20254;-73
2022/03/10 03:12:32;;;;;;;23.65;21.15;;;;;;;-1.20;100.00;100210.53;2082024;28;20246;-73
2022/03/10 03:13:35;;;;;;;24.33;21.90;;;;;;;-1.24;100.00;100209.28;2082311;28;20605;-73
2022/03/10 03:14:38;;;;;;;23.88;21.27;;;;;;;-1.22;100.00;100215.13;2082428;28;20227;-73
2022/03/10 03:15:40;;;;;;;22.10;19.92;;;;;;;-1.28;100.00;100210.66;2090666;28;20186;-73
2022/03/10 03:16:43;;;;;;;23.30;20.92;;;;;;;-1.37;100.00;100219.66;2082953;28;20196;-74
2022/03/10 03:17:47;;;;;;;23.17;20.88;;;;;;;-1.42;100.00;100214.97;2082077;28;20566;-73
2022/03/10 03:18:50;;;;;;;22.92;20.42;;;;;;;-1.41;100.00;100215.78;2082352;28;20201;-74
2022/03/10 03:19:55;;;;;;;21.70;19.70;;;;;;;-1.31;100.00;100221.50;2083196;28;20198;-73
2022/03/10 03:20:56;;;;;;;22.63;20.15;;;;;;;-1.32;100.00;100219.09;2082415;28;20192;-73
2022/03/10 03:21:59;;;;;;;22.15;20.05;;;;;;;-1.34;100.00;100223.69;2083044;28;20187;-73
2022/03/10 03:23:02;;;;;;;23.40;20.95;;;;;;;-1.47;100.00;100225.22;2082842;28;20232;-73
2022/03/10 03:24:07;;;;;;;22.67;20.42;;;;;;;-1.57;100.00;100224.72;2090491;28;20313;-73
2022/03/10 03:25:14;;;;;;;22.08;19.90;;;;;;;-1.53;100.00;100223.34;2082022;28;20204;-73
2022/03/10 03:26:21;;;;;;;22.58;20.42;;;;;;;-1.59;100.00;100223.28;2082305;28;20226;-74
2022/03/10 03:27:24;;;;;;;24.85;20.48;;;;;;;-1.67;100.00;100226.03;2082144;28;20215;-73
2022/03/10 03:28:28;;;;;;;23.92;19.67;;;;;;;-1.77;100.00;100232.38;2082174;28;20281;-73
2022/03/10 03:29:29;;;;;;;22.88;20.52;;;;;;;-1.85;100.00;100226.47;2082966;28;20195;-73
2022/03/10 03:30:34;;;;;;;22.55;20.40;;;;;;;-1.79;100.00;100223.94;2083056;28;20206;-73
2022/03/10 03:31:37;;;;;;;22.75;20.45;;;;;;;-1.85;100.00;100236.94;2082420;28;20211;-73
2022/03/10 03:32:43;;;;;;;23.05;20.70;;;;;;;-1.84;100.00;100234.13;2082340;28;20191;-73
2022/03/10 03:33:46;;;;;;;21.83;19.63;;;;;;;-1.83;100.00;100232.31;2082453;28;20690;-73
2022/03/10 03:34:49;;;;;;;24.17;20.65;;;;;;;-1.89;100.00;100231.28;2082321;28;20203;-73
2022/03/10 03:35:50;;;;;;;22.73;20.30;;;;;;;-1.94;100.00;100236.25;2082301;28;20556;-72
2022/03/10 03:36:52;;;;;;;22.95;20.65;;;;;;;-1.97;100.00;100239.22;2083020;28;20191;-73
2022/03/10 03:37:54;;;;;;;22.67;20.27;;;;;;;-1.91;100.00;100237.66;2082831;28;20191;-73
2022/03/10 03:38:58;;;;;;;22.42;20.27;;;;;;;-1.86;100.00;100240.53;2082265;28;20199;-73
2022/03/10 03:40:00;;;;;;;24.27;21.60;;;;;;;-1.91;100.00;100235.88;2082301;28;20204;-73
2022/03/10 03:41:04;;;;;;;23.10;20.90;;;;;;;-1.94;100.00;100235.44;2081246;28;20311;-73
2022/03/10 03:42:07;;;;;;;23.05;20.63;;;;;;;-1.96;100.00;100232.19;2074596;28;20205;-73
2022/03/10 03:43:09;;;;;;;28.20;20.67;;;;;;;-1.85;100.00;100240.34;2082340;28;20685;-73
2022/03/10 03:44:13;;;;;;;23.42;20.95;;;;;;;-1.76;100.00;100238.44;2082714;28;20204;-73
2022/03/10 03:45:21;;;;;;;23.75;21.27;;;;;;;-1.79;100.00;100233.56;2090103;28;20231;-73
2022/03/10 03:46:25;;;;;;;23.05;20.55;;;;;;;-1.76;100.00;100244.47;2082055;28;20214;-73
2022/03/10 03:47:33;;;;;;;22.75;20.48;;;;;;;-1.79;100.00;100249.28;2082040;28;20585;-73
2022/03/10 03:48:36;;;;;;;22.48;20.27;;;;;;;-1.87;100.00;100239.75;2082584;28;20199;-73
2022/03/10 03:49:38;;;;;;;24.05;21.58;;;;;;;-1.88;100.00;100250.38;2081879;28;20199;-74
2022/03/10 03:50:40;;;;;;;23.73;21.25;;;;;;;-1.87;100.00;100246.78;2082108;28;20290;-73
2022/03/10 03:51:43;;;;;;;24.35;21.83;;;;;;;-1.84;100.00;100252.44;2081712;28;20711;-73
2022/03/10 03:52:45;;;;;;;23.17;20.83;;;;;;;-1.93;100.00;100243.09;2073596;28;20211;-73
2022/03/10 03:53:49;;;;;;;24.03;21.63;;;;;;;-1.96;100.00;100253.13;2073735;28;20332;-73
2022/03/10 03:54:51;;;;;;;23.05;20.77;;;;;;;-2.05;100.00;100255.03;2082266;28;20192;-73
2022/03/10 03:55:57;;;;;;;23.20;20.75;;;;;;;-2.10;100.00;100262.59;2082298;28;20203;-73
2022/03/10 03:56:58;;;;;;;24.50;21.25;;;;;;;-2.15;100.00;100265.78;2082274;28;20195;-73
2022/03/10 03:58:02;;;;;;;23.88;21.30;;;;;;;-2.12;100.00;100265.41;2082654;28;20199;-73
2022/03/10 03:59:03;;;;;;;22.77;20.40;;;;;;;-2.07;100.00;100264.88;2082542;28;20202;-73
2022/03/10 04:00:09;;;;;;;22.92;20.83;;;;;;;-2.17;100.00;100272.16;2081905;28;20183;-73
2022/03/10 04:01:12;;;;;;;24.70;20.42;;;;;;;-2.11;100.00;100266.22;2074655;28;20207;-73
2022/03/10 04:02:15;;;;;;;23.38;20.92;;;;;;;-2.14;100.00;100277.88;2073931;28;20258;-73
2022/03/10 04:03:16;;;;;;;22.77;20.40;;;;;;;-2.24;100.00;100276.53;2074116;28;20663;-73
2022/03/10 04:04:22;;;;;;;21.35;19.35;;;;;;;-2.23;100.00;100272.91;2081945;28;20565;-73
2022/03/10 04:05:23;;;;;;;21.98;19.98;;;;;;;-2.27;100.00;100268.03;2082573;28;20183;-73
2022/03/10 04:06:26;;;;;;;22.85;20.48;;;;;;;-2.29;100.00;100280.50;2082106;28;20231;-73
2022/03/10 04:07:29;;;;;;;22.58;20.25;;;;;;;-2.30;100.00;100278.88;2082514;28;20761;-73
2022/03/10 04:08:34;;;;;;;23.27;20.98;;;;;;;-2.40;100.00;100275.72;2082383;28;20269;-73
2022/03/10 04:09:37;;;;;;;24.42;21.85;;;;;;;-2.48;100.00;100281.06;2082749;28;20199;-73
2022/03/10 04:10:40;;;;;;;22.95;20.60;;;;;;;-2.35;100.00;100285.63;2082438;28;20536;-73
2022/03/10 04:11:42;;;;;;;23.92;21.02;;;;;;;-2.33;100.00;100289.69;2082453;28;20249;-73
2022/03/10 04:12:47;;;;;;;22.90;20.65;;;;;;;-2.39;100.00;100282.56;2081842;28;20295;-73
2022/03/10 04:13:52;;;;;;;23.02;20.73;;;;;;;-2.41;100.00;100284.56;2082021;28;20264;-73
2022/03/10 04:14:56;;;;;;;26.73;21.63;;;;;;;-2.44;100.00;100292.75;2082445;28;20261;-73
2022/03/10 04:15:59;;;;;;;22.92;20.60;;;;;;;-2.41;100.00;100296.81;2082498;28;20662;-73
2022/03/10 04:17:02;;;;;;;23.35;21.05;;;;;;;-2.47;100.00;100302.75;2081759;28;20617;-73
2022/03/10 04:18:04;;;;;;;22.75;20.35;;;;;;;-2.53;100.00;100299.06;2073797;28;20208;-73
2022/03/10 04:19:07;;;;;;;23.30;20.83;;;;;;;-2.39;100.00;100293.03;2081871;28;20274;-73
2022/03/10 04:20:13;;;;;;;24.23;21.52;;;;;;;-2.48;100.00;100293.31;2081676;28;20265;-73
2022/03/10 04:21:17;;;;;;;23.63;21.13;;;;;;;-2.53;100.00;100299.06;2081479;28;20505;-73
2022/03/10 04:22:20;;;;;;;22.67;20.38;;;;;;;-2.47;100.00;100303.56;2082331;28;20199;-73
2022/03/10 04:23:26;;;;;;;21.58;19.40;;;;;;;-2.50;100.00;100303.13;2081628;28;20196;-73
2022/03/10 04:24:31;;;;;;;23.63;20.85;;;;;;;-2.51;100.00;100309.34;2074488;28;20635;-73
2022/03/10 04:25:34;;;;;;;23.23;20.73;;;;;;;-2.60;100.00;100308.63;2074213;28;20210;-73
2022/03/10 04:26:35;;;;;;;23.48;21.00;;;;;;;-2.64;100.00;100317.78;2082027;28;20686;-73
2022/03/10 04:27:39;;;;;;;23.43;20.37;;;;;;;-2.69;100.00;100317.53;2082034;28;20587;-73
2022/03/10 04:28:41;;;;;;;25.73;21.48;;;;;;;-2.75;100.00;100319.06;2082318;28;20243;-73
2022/03/10 04:29:48;;;;;;;24.40;21.13;;;;;;;-2.78;100.00;100324.66;2081732;28;20203;-73
2022/03/10 04:30:52;;;;;;;24.52;21.40;;;;;;;-2.76;100.00;100314.00;2081792;28;20917;-73
2022/03/10 04:31:58;;;;;;;23.17;20.75;;;;;;;-2.82;100.00;100317.31;2081480;28;20234;-73
2022/03/10 04:32:59;;;;;;;23.33;20.38;;;;;;;-2.84;100.00;100317.50;2081924;28;20191;-73
2022/03/10 04:34:06;;;;;;;24.00;21.33;;;;;;;-2.84;100.00;100320.13;2082288;28;20183;-73
2022/03/10 04:35:08;;;;;;;22.65;20.35;;;;;;;-2.89;100.00;100317.22;2081993;28;20195;-73
2022/03/10 04:36:11;;;;;;;23.70;21.17;;;;;;;-2.95;100.00;100321.38;2081363;28;20233;-73
2022/03/10 04:37:14;;;;;;;27.35;20.75;;;;;;;-3.01;100.00;100322.06;2082338;28;20232;-73
2022/03/10 04:38:19;;;;;;;23.90;21.13;;;;;;;-2.99;100.00;100325.31;2081998;28;20203;-73
2022/03/10 04:39:21;;;;;;;25.05;20.58;;;;;;;-3.01;100.00;100316.03;2081643;28;20199;-73
2022/03/10 04:40:24;;;;;;;26.58;21.77;;;;;;;-3.07;100.00;100317.53;2082306;28;20192;-73
2022/03/10 04:41:26;;;;;;;23.10;20.70;;;;;;;-2.99;100.00;100316.66;2082308;28;20237;-73
2022/03/10 04:42:28;;;;;;;23.50;21.23;;;;;;;-3.00;100.00;100331.53;2082215;28;20196;-73
2022/03/10 04:43:29;;;;;;;26.48;21.63;;;;;;;-3.11;100.00;100321.50;2082274;28;20662;-73
2022/03/10 04:44:33;;;;;;;25.88;22.00;;;;;;;-3.15;100.00;100333.25;2082408;28;20615;-73
2022/03/10 04:45:38;;;;;;;22.73;20.45;;;;;;;-3.14;100.00;100334.88;2081962;28;20228;-73
2022/03/10 04:46:43;;;;;;;23.75;20.98;;;;;;;-3.14;100.00;100337.50;2081541;28;20208;-73
2022/03/10 04:47:47;;;;;;;24.30;21.73;;;;;;;-3.16;100.00;100335.06;2073915;28;20196;-73
2022/03/10 04:48:52;;;;;;;23.55;21.13;;;;;;;-3.25;100.00;100341.34;2081696;28;20214;-73
2022/03/10 04:49:58;;;;;;;25.00;22.23;;;;;;;-3.29;100.00;100340.06;2082305;28;20290;-73
2022/03/10 04:51:00;;;;;;;25.13;21.25;;;;;;;-3.23;100.00;100338.53;2081403;28;20571;-73
2022/03/10 04:52:04;;;;;;;23.42;20.92;;;;;;;-3.16;100.00;100344.69;2073333;28;20623;-73
2022/03/10 04:53:09;;;;;;;25.67;22.13;;;;;;;-3.22;100.00;100345.38;2081702;28;20230;-73
2022/03/10 04:54:10;;;;;;;25.15;21.95;;;;;;;-3.28;100.00;100346.09;2082261;28;20176;-74